»·PEaware :: UAL1399 KLAS-KLAX

UAL1399 :: KLAS-KLAX

FLIGHT INFORMATION

Flight Status: Arrived
Operator:
United Airlines
More flights by this operator :: More flights under this callsign
Pilot: David C. (16084)
Aircraft: AIRBUS A320
(A320)
More flights by this aircraft type
Origin: KLAS McCarran Intl
United States
Destination: KLAX Los Angeles Intl
United States
More flights between these airports :: More routes between these airports
Route: +BOACH8 RIKII SHTNR ANJLL4
File this flight plan on PilotEdge
Remarks:
Altitude:
(Current/Filed)
28,000ft
Speed:
(Current/Filed)
492kts
Departed: 03-Nov-19 12:04 PM
Arrived: 03-Nov-19 12:45 PM
Distance/Time
Traveled:
205nm/0:41
Distance/Time
To Go:
Arrived

Flight Plot

Page will automatically refresh every two minutes.

Flight plan parsing failed; only flown route is shown


Map Options




Map Legend


Flown Route
Filed Route
Departure Airport
Arrival Airport
Navaid (VOR, NDB)
Fix

Horizontal Profiles

Position Reports

Time Latitude Longitude Heading Altitude Ground
Speed
03-Nov-19 11:34 36.085349 -115.140010 0 2190ft 0kts
03-Nov-19 11:35 36.085349 -115.140010 0 2190ft 0kts
03-Nov-19 11:36 36.085349 -115.140010 0 2190ft 0kts
03-Nov-19 11:37 36.085349 -115.140010 0 2190ft 0kts
03-Nov-19 11:38 36.085349 -115.140010 0 2190ft 0kts
03-Nov-19 11:39 36.085349 -115.140010 0 2190ft 0kts
03-Nov-19 11:40 36.085349 -115.140010 0 2190ft 0kts
03-Nov-19 11:41 36.085349 -115.140010 0 2190ft 0kts
03-Nov-19 11:42 36.085349 -115.140010 0 2190ft 0kts
03-Nov-19 11:43 36.085349 -115.140010 0 2190ft 0kts
03-Nov-19 11:44 36.085349 -115.140010 0 2190ft 0kts
03-Nov-19 11:45 36.085349 -115.140010 0 2190ft 0kts
03-Nov-19 11:46 36.085349 -115.140010 0 2190ft 0kts
03-Nov-19 11:47 36.085349 -115.140010 0 2190ft 0kts
03-Nov-19 11:48 36.085349 -115.140010 0 2190ft 0kts
03-Nov-19 11:49 36.085338 -115.140011 2 2190ft 1kts
03-Nov-19 11:50 36.084770 -115.140136 35 2190ft 2kts
03-Nov-19 11:51 36.084578 -115.140390 57 2190ft 0kts
03-Nov-19 11:52 36.084578 -115.140390 57 2190ft 0kts
03-Nov-19 11:53 36.084654 -115.140210 68 2190ft 5kts
03-Nov-19 11:54 36.084682 -115.135751 88 2190ft 14kts
03-Nov-19 11:55 36.081766 -115.132908 179 2190ft 16kts
03-Nov-19 11:56 36.079713 -115.132907 180 2190ft 0kts
03-Nov-19 11:57 36.078278 -115.131029 89 2190ft 13kts
03-Nov-19 11:58 36.078279 -115.123333 92 2190ft 19kts
03-Nov-19 11:59 36.077509 -115.121605 135 2190ft 0kts
03-Nov-19 12:00 36.077509 -115.121605 135 2190ft 0kts
03-Nov-19 12:01 36.077509 -115.121605 135 2190ft 0kts
03-Nov-19 12:02 36.076431 -115.122400 270 2190ft 29kts
03-Nov-19 12:03 36.076490 -115.174802 270 3450ft 211kts
03-Nov-19 12:04 36.067393 -115.250550 229 6297ft 261kts
03-Nov-19 12:05 35.997245 -115.290155 200 7029ft 284kts
03-Nov-19 12:06 35.919606 -115.307838 186 8177ft 293kts
03-Nov-19 12:07 35.835729 -115.312853 175 11214ft 327kts
03-Nov-19 12:08 35.741833 -115.301984 175 14266ft 344kts
03-Nov-19 12:09 35.644629 -115.296034 183 16995ft 359kts
03-Nov-19 12:10 35.542776 -115.300084 182 19406ft 375kts
03-Nov-19 12:11 35.446040 -115.345003 212 21511ft 387kts
03-Nov-19 12:12 35.351825 -115.413571 211 23421ft 401kts
03-Nov-19 12:13 35.254642 -115.483991 211 25153ft 413kts
03-Nov-19 12:14 35.154387 -115.556440 211 26749ft 425kts
03-Nov-19 12:15 35.067643 -115.650886 226 28082ft 435kts
03-Nov-19 12:16 34.980783 -115.761871 228 28135ft 475kts
03-Nov-19 12:17 34.887677 -115.880254 229 28141ft 479kts
03-Nov-19 12:18 34.798347 -115.993394 224 28136ft 460kts
03-Nov-19 12:19 34.709625 -116.106277 224 28136ft 462kts
03-Nov-19 12:20 34.620765 -116.219241 224 28125ft 462kts
03-Nov-19 12:21 34.531915 -116.331798 224 28083ft 463kts
03-Nov-19 12:22 34.442866 -116.444242 224 27141ft 466kts
03-Nov-19 12:23 34.377525 -116.572728 240 26368ft 427kts
03-Nov-19 12:24 34.327748 -116.693385 240 25441ft 388kts
03-Nov-19 12:25 34.281676 -116.808186 240 23660ft 374kts
03-Nov-19 12:26 34.235962 -116.921537 240 21524ft 374kts
03-Nov-19 12:27 34.196548 -117.037121 249 19483ft 372kts
03-Nov-19 12:28 34.164816 -117.154120 253 17595ft 363kts
03-Nov-19 12:29 34.133438 -117.268175 253 15802ft 353kts
03-Nov-19 12:30 34.102781 -117.379330 253 14012ft 345kts
03-Nov-19 12:31 34.075515 -117.488631 252 12511ft 329kts
03-Nov-19 12:32 34.040676 -117.588728 246 10962ft 320kts
03-Nov-19 12:33 34.007148 -117.684530 257 9957ft 294kts
03-Nov-19 12:34 33.997241 -117.781453 264 8545ft 290kts
03-Nov-19 12:35 33.987834 -117.877947 264 7227ft 287kts
03-Nov-19 12:36 33.978904 -117.968599 264 6248ft 248kts
03-Nov-19 12:37 33.971904 -118.045004 266 5490ft 214kts
03-Nov-19 12:38 33.965195 -118.114919 263 4556ft 209kts
03-Nov-19 12:39 33.958012 -118.183282 264 3338ft 201kts
03-Nov-19 12:40 33.951479 -118.246064 264 2365ft 179kts
03-Nov-19 12:41 33.945509 -118.303623 264 1468ft 155kts
03-Nov-19 12:42 33.940796 -118.349423 263 715ft 133kts
03-Nov-19 12:43 33.936327 -118.392743 263 136ft 106kts
03-Nov-19 12:44 33.935814 -118.406057 287 136ft 0kts
03-Nov-19 12:45 33.935907 -118.406437 283 136ft 11kts
03-Nov-19 12:46 33.938825 -118.407844 83 136ft 18kts
03-Nov-19 12:47 33.939535 -118.400746 83 136ft 23kts
03-Nov-19 12:48 33.941059 -118.398978 306 136ft 0kts
03-Nov-19 12:49 33.941059 -118.398978 306 136ft 0kts
03-Nov-19 12:50 33.941059 -118.398978 306 136ft 0kts

Navigation Log

Ident Type
Flight plan parsing failed, navigation log unavailable